KAL2041 RKSI-ZMCK
Flight info
| Callsign | KAL2041 |
|---|---|
| Flight time | 2h 55m |
| Altitude | 34000 |
| Route | NOPIK Y697 AGAVO/K0876S1035 A591 IKEKA W4 HCH W200 DOVIV W55 PAMRU W34 LADIX B339 POLHO Y345 MENUG MENUG2W |
| Aircraft | B77W/H-SDE1E2E3FGHIJ2J3J4J5M1RWXY/LB1D1 |
Departure
| Time | 2026-05-06 05:46 |
|---|---|
| Airport | Incheon International Airport (RKSI) |
Arrival
| Time | 2026-05-06 08:41 |
|---|---|
| Airport | Ulaanbaatar Chinggis Khaan International Airport (ZMCK) |
| Time | Latitude | Longitude | Altitude | Speed | Heading |
|---|---|---|---|---|---|
| 2026-05-06 04:49 | 37.46730 | 126.42887 | 23 ft | 0 kts | 51° |
| 2026-05-06 05:35 | 37.46728 | 126.42884 | 38 ft | 3 kts | 51° |
| 2026-05-06 05:35 | 37.46711 | 126.42858 | 38 ft | 4 kts | 52° |
| 2026-05-06 05:36 | 37.46696 | 126.42833 | 38 ft | 4 kts | 48° |
| 2026-05-06 05:36 | 37.46679 | 126.42814 | 36 ft | 4 kts | 19° |
| 2026-05-06 05:36 | 37.46662 | 126.42811 | 37 ft | 4 kts | 338° |
| 2026-05-06 05:36 | 37.46642 | 126.42828 | 35 ft | 4 kts | 319° |
| 2026-05-06 05:37 | 37.46626 | 126.42844 | 35 ft | 1 kts | 323° |
| 2026-05-06 05:37 | 37.46624 | 126.42846 | 34 ft | 0 kts | 323° |
| 2026-05-06 05:40 | 37.46637 | 126.42834 | 38 ft | 7 kts | 323° |
| 2026-05-06 05:40 | 37.46692 | 126.42782 | 38 ft | 11 kts | 323° |
| 2026-05-06 05:40 | 37.46752 | 126.42722 | 38 ft | 11 kts | 318° |
| 2026-05-06 05:41 | 37.46808 | 126.42658 | 38 ft | 11 kts | 317° |
| 2026-05-06 05:41 | 37.46864 | 126.42593 | 38 ft | 11 kts | 313° |
| 2026-05-06 05:41 | 37.46856 | 126.42505 | 37 ft | 11 kts | 236° |
| 2026-05-06 05:41 | 37.46817 | 126.42423 | 38 ft | 11 kts | 259° |
| 2026-05-06 05:42 | 37.46861 | 126.42347 | 38 ft | 11 kts | 322° |
| 2026-05-06 05:42 | 37.46932 | 126.42285 | 38 ft | 15 kts | 326° |
| 2026-05-06 05:42 | 37.47020 | 126.42209 | 38 ft | 15 kts | 324° |
| 2026-05-06 05:42 | 37.47106 | 126.42132 | 38 ft | 15 kts | 324° |
| 2026-05-06 05:43 | 37.47192 | 126.42055 | 38 ft | 15 kts | 324° |
| 2026-05-06 05:43 | 37.47279 | 126.41978 | 38 ft | 15 kts | 325° |
| 2026-05-06 05:43 | 37.47364 | 126.41902 | 38 ft | 12 kts | 324° |
| 2026-05-06 05:43 | 37.47402 | 126.41820 | 38 ft | 12 kts | 257° |
| 2026-05-06 05:44 | 37.47360 | 126.41729 | 38 ft | 12 kts | 238° |
| 2026-05-06 05:44 | 37.47313 | 126.41642 | 38 ft | 12 kts | 233° |
| 2026-05-06 05:44 | 37.47259 | 126.41592 | 38 ft | 10 kts | 180° |
| 2026-05-06 05:44 | 37.47203 | 126.41629 | 38 ft | 4 kts | 145° |
| 2026-05-06 05:45 | 37.47131 | 126.41692 | 38 ft | 41 kts | 145° |
| 2026-05-06 05:45 | 37.46654 | 126.42117 | 38 ft | 124 kts | 145° |
| 2026-05-06 05:45 | 37.45769 | 126.42910 | 108 ft | 177 kts | 148° |
| 2026-05-06 05:46 | 37.44777 | 126.43783 | 904 ft | 176 kts | 151° |
| 2026-05-06 05:46 | 37.43733 | 126.44605 | 1784 ft | 175 kts | 156° |
| 2026-05-06 05:46 | 37.42677 | 126.45389 | 2637 ft | 181 kts | 156° |
| 2026-05-06 05:46 | 37.41524 | 126.46224 | 3075 ft | 202 kts | 156° |
| 2026-05-06 05:47 | 37.40209 | 126.47189 | 3307 ft | 235 kts | 154° |
| 2026-05-06 05:47 | 37.38720 | 126.48287 | 3727 ft | 255 kts | 155° |
| 2026-05-06 05:47 | 37.37074 | 126.49080 | 4406 ft | 259 kts | 168° |
| 2026-05-06 05:47 | 37.35299 | 126.49638 | 5255 ft | 265 kts | 169° |
| 2026-05-06 05:48 | 37.33485 | 126.50205 | 6116 ft | 271 kts | 168° |
| 2026-05-06 05:48 | 37.31627 | 126.50643 | 6855 ft | 272 kts | 185° |
| 2026-05-06 05:48 | 37.29868 | 126.49917 | 7617 ft | 268 kts | 219° |
| 2026-05-06 05:48 | 37.28712 | 126.48135 | 8468 ft | 268 kts | 246° |
| 2026-05-06 05:49 | 37.28213 | 126.45864 | 9329 ft | 272 kts | 263° |
| 2026-05-06 05:49 | 37.28264 | 126.43471 | 10119 ft | 278 kts | 274° |
| 2026-05-06 05:49 | 37.28495 | 126.40995 | 10561 ft | 298 kts | 276° |
| 2026-05-06 05:49 | 37.28781 | 126.38288 | 10769 ft | 326 kts | 276° |
| 2026-05-06 05:50 | 37.29098 | 126.35350 | 11083 ft | 349 kts | 276° |
| 2026-05-06 05:50 | 37.29423 | 126.32305 | 11803 ft | 360 kts | 276° |
| 2026-05-06 05:50 | 37.29754 | 126.29153 | 12745 ft | 366 kts | 276° |
| 2026-05-06 05:50 | 37.30082 | 126.25954 | 13781 ft | 371 kts | 276° |
| 2026-05-06 05:51 | 37.30408 | 126.22709 | 14709 ft | 376 kts | 276° |
| 2026-05-06 05:51 | 37.30732 | 126.19437 | 15701 ft | 379 kts | 276° |
| 2026-05-06 05:51 | 37.31057 | 126.16123 | 16710 ft | 382 kts | 276° |
| 2026-05-06 05:51 | 37.31382 | 126.12786 | 17688 ft | 386 kts | 276° |
| 2026-05-06 05:52 | 37.31705 | 126.09450 | 18561 ft | 391 kts | 276° |
| 2026-05-06 05:52 | 37.32034 | 126.06038 | 19373 ft | 395 kts | 276° |
| 2026-05-06 05:52 | 37.32365 | 126.02597 | 20221 ft | 398 kts | 277° |
| 2026-05-06 05:52 | 37.32697 | 125.99132 | 21080 ft | 401 kts | 277° |
| 2026-05-06 05:53 | 37.33031 | 125.95628 | 21881 ft | 405 kts | 277° |
| 2026-05-06 05:53 | 37.33368 | 125.92091 | 22665 ft | 409 kts | 277° |
| 2026-05-06 05:53 | 37.33707 | 125.88517 | 23442 ft | 413 kts | 277° |
| 2026-05-06 05:53 | 37.34049 | 125.84909 | 24115 ft | 416 kts | 277° |
| 2026-05-06 05:54 | 37.34391 | 125.81276 | 24774 ft | 420 kts | 277° |
| 2026-05-06 05:54 | 37.34735 | 125.77616 | 25413 ft | 423 kts | 277° |
| 2026-05-06 05:54 | 37.35076 | 125.73976 | 26047 ft | 425 kts | 277° |
| 2026-05-06 05:54 | 37.35422 | 125.70265 | 26686 ft | 428 kts | 278° |
| 2026-05-06 05:55 | 37.35769 | 125.66535 | 27276 ft | 431 kts | 278° |
| 2026-05-06 05:55 | 37.36117 | 125.62774 | 27840 ft | 435 kts | 278° |
| 2026-05-06 05:55 | 37.36467 | 125.58984 | 28408 ft | 438 kts | 278° |
| 2026-05-06 05:55 | 37.36820 | 125.55154 | 28978 ft | 441 kts | 278° |
| 2026-05-06 05:56 | 37.37172 | 125.51315 | 29516 ft | 443 kts | 278° |
| 2026-05-06 05:56 | 37.37524 | 125.47455 | 30020 ft | 445 kts | 278° |
| 2026-05-06 05:56 | 37.37875 | 125.43597 | 30610 ft | 443 kts | 278° |
| 2026-05-06 05:56 | 37.38221 | 125.39763 | 31303 ft | 438 kts | 279° |
| 2026-05-06 05:57 | 37.38560 | 125.36012 | 31932 ft | 435 kts | 279° |
| 2026-05-06 05:57 | 37.38900 | 125.32243 | 32501 ft | 433 kts | 279° |
| 2026-05-06 05:57 | 37.39237 | 125.28483 | 33082 ft | 430 kts | 279° |
| 2026-05-06 05:57 | 37.39562 | 125.24744 | 33665 ft | 428 kts | 278° |
| 2026-05-06 05:58 | 37.39715 | 125.21042 | 34024 ft | 432 kts | 274° |
| 2026-05-06 05:58 | 37.39663 | 125.17251 | 34000 ft | 432 kts | 273° |
| 2026-05-06 05:58 | 37.39493 | 125.09716 | 34000 ft | 429 kts | 273° |
| 2026-05-06 05:59 | 37.39343 | 125.02207 | 33999 ft | 429 kts | 273° |
| 2026-05-06 05:59 | 37.39207 | 124.94690 | 33992 ft | 430 kts | 273° |
| 2026-05-06 06:00 | 37.39069 | 124.87156 | 33996 ft | 430 kts | 273° |
| 2026-05-06 06:00 | 37.38948 | 124.80947 | 33994 ft | 430 kts | 273° |
| 2026-05-06 06:01 | 37.38794 | 124.73411 | 33990 ft | 430 kts | 273° |
| 2026-05-06 06:01 | 37.38610 | 124.64660 | 33987 ft | 429 kts | 273° |
| 2026-05-06 06:02 | 37.38475 | 124.58414 | 33978 ft | 429 kts | 273° |
| 2026-05-06 06:02 | 37.38309 | 124.50897 | 33976 ft | 429 kts | 272° |
| 2026-05-06 06:03 | 37.37607 | 124.43469 | 33989 ft | 436 kts | 260° |
| 2026-05-06 06:03 | 37.35406 | 124.36293 | 33954 ft | 447 kts | 247° |
| 2026-05-06 06:04 | 37.32053 | 124.29629 | 33970 ft | 451 kts | 243° |
| 2026-05-06 06:04 | 37.28649 | 124.23066 | 33963 ft | 450 kts | 244° |
| 2026-05-06 06:05 | 37.25275 | 124.16418 | 33964 ft | 450 kts | 244° |
| 2026-05-06 06:05 | 37.21890 | 124.09801 | 33964 ft | 450 kts | 243° |
| 2026-05-06 06:06 | 37.18437 | 124.03290 | 33964 ft | 450 kts | 243° |
| 2026-05-06 06:06 | 37.14985 | 123.96726 | 33963 ft | 450 kts | 243° |
| 2026-05-06 06:07 | 37.11586 | 123.90132 | 33962 ft | 449 kts | 244° |
| 2026-05-06 06:07 | 37.08200 | 123.83558 | 33956 ft | 449 kts | 244° |
| 2026-05-06 06:08 | 37.04815 | 123.77018 | 33963 ft | 449 kts | 243° |
| 2026-05-06 06:08 | 37.01406 | 123.70450 | 33958 ft | 448 kts | 243° |
| 2026-05-06 06:09 | 36.98020 | 123.63943 | 33956 ft | 448 kts | 243° |
| 2026-05-06 06:09 | 36.94608 | 123.57395 | 33956 ft | 448 kts | 243° |
| 2026-05-06 06:10 | 36.91194 | 123.50856 | 33955 ft | 448 kts | 243° |
| 2026-05-06 06:10 | 36.87805 | 123.44374 | 33957 ft | 448 kts | 243° |
| 2026-05-06 06:11 | 36.84783 | 123.37682 | 33945 ft | 432 kts | 259° |
| 2026-05-06 06:11 | 36.84274 | 123.34026 | 33961 ft | 426 kts | 270° |
| 2026-05-06 06:11 | 36.84333 | 123.30340 | 33951 ft | 425 kts | 280° |
| 2026-05-06 06:12 | 36.85935 | 123.23257 | 33953 ft | 426 kts | 289° |
| 2026-05-06 06:12 | 36.87717 | 123.16186 | 33948 ft | 429 kts | 288° |
| 2026-05-06 06:13 | 36.89470 | 123.09039 | 33942 ft | 429 kts | 288° |
| 2026-05-06 06:13 | 36.91177 | 123.01960 | 33941 ft | 426 kts | 288° |
| 2026-05-06 06:14 | 36.92873 | 122.94875 | 33936 ft | 424 kts | 288° |
| 2026-05-06 06:14 | 36.94550 | 122.87850 | 33939 ft | 422 kts | 287° |
| 2026-05-06 06:15 | 36.96226 | 122.80813 | 33933 ft | 421 kts | 287° |
| 2026-05-06 06:15 | 36.97892 | 122.73799 | 33936 ft | 420 kts | 287° |
| 2026-05-06 06:16 | 36.99543 | 122.66825 | 33935 ft | 421 kts | 287° |
| 2026-05-06 06:16 | 37.01204 | 122.59791 | 33932 ft | 421 kts | 287° |
| 2026-05-06 06:17 | 37.02867 | 122.52726 | 33929 ft | 422 kts | 287° |
| 2026-05-06 06:17 | 37.04512 | 122.45717 | 33924 ft | 422 kts | 287° |
| 2026-05-06 06:18 | 37.06176 | 122.38655 | 33927 ft | 421 kts | 289° |
| 2026-05-06 06:18 | 37.09041 | 122.32266 | 33930 ft | 424 kts | 305° |
| 2026-05-06 06:19 | 37.13268 | 122.27056 | 33928 ft | 431 kts | 320° |
| 2026-05-06 06:19 | 37.17502 | 122.21967 | 33922 ft | 423 kts | 303° |
| 2026-05-06 06:20 | 37.20326 | 122.15536 | 33907 ft | 420 kts | 288° |
| 2026-05-06 06:20 | 37.22111 | 122.08569 | 33903 ft | 421 kts | 287° |
| 2026-05-06 06:21 | 37.23880 | 122.01534 | 33903 ft | 422 kts | 287° |
| 2026-05-06 06:21 | 37.25679 | 121.94491 | 33898 ft | 423 kts | 287° |
| 2026-05-06 06:22 | 37.27481 | 121.87493 | 33893 ft | 424 kts | 287° |
| 2026-05-06 06:22 | 37.29296 | 121.80446 | 33890 ft | 423 kts | 287° |
| 2026-05-06 06:23 | 37.31109 | 121.73390 | 33880 ft | 423 kts | 287° |
| 2026-05-06 06:23 | 37.32901 | 121.66384 | 33877 ft | 423 kts | 287° |
| 2026-05-06 06:24 | 37.34700 | 121.59335 | 33867 ft | 423 kts | 287° |
| 2026-05-06 06:24 | 37.36493 | 121.52296 | 33861 ft | 423 kts | 287° |
| 2026-05-06 06:25 | 37.38281 | 121.45253 | 33855 ft | 422 kts | 287° |
| 2026-05-06 06:26 | 37.40944 | 121.34723 | 33846 ft | 422 kts | 286° |
| 2026-05-06 06:26 | 37.42722 | 121.27669 | 33841 ft | 422 kts | 286° |
| 2026-05-06 06:27 | 37.44484 | 121.20661 | 33831 ft | 422 kts | 286° |
| 2026-05-06 06:27 | 37.46475 | 121.13666 | 33840 ft | 423 kts | 290° |
| 2026-05-06 06:28 | 37.48676 | 121.06819 | 33828 ft | 424 kts | 290° |
| 2026-05-06 06:28 | 37.50885 | 120.99927 | 33821 ft | 424 kts | 290° |
| 2026-05-06 06:29 | 37.53078 | 120.93017 | 33816 ft | 424 kts | 289° |
| 2026-05-06 06:29 | 37.55252 | 120.86134 | 33808 ft | 424 kts | 289° |
| 2026-05-06 06:30 | 37.57434 | 120.79210 | 33810 ft | 424 kts | 289° |
| 2026-05-06 06:30 | 37.59619 | 120.72344 | 33798 ft | 424 kts | 290° |
| 2026-05-06 06:31 | 37.61902 | 120.65454 | 33798 ft | 424 kts | 290° |
| 2026-05-06 06:31 | 37.64165 | 120.58585 | 33799 ft | 424 kts | 289° |
| 2026-05-06 06:32 | 37.66647 | 120.51871 | 33794 ft | 426 kts | 296° |
| 2026-05-06 06:32 | 37.69631 | 120.45394 | 33791 ft | 426 kts | 296° |
| 2026-05-06 06:33 | 37.72598 | 120.38942 | 33783 ft | 425 kts | 296° |
| 2026-05-06 06:33 | 37.75556 | 120.32461 | 33786 ft | 425 kts | 296° |
| 2026-05-06 06:34 | 37.78481 | 120.26023 | 33783 ft | 424 kts | 296° |
| 2026-05-06 06:34 | 37.81421 | 120.19534 | 33774 ft | 424 kts | 296° |
| 2026-05-06 06:35 | 37.84334 | 120.13092 | 33770 ft | 424 kts | 295° |
| 2026-05-06 06:35 | 37.87262 | 120.06607 | 33766 ft | 424 kts | 295° |
| 2026-05-06 06:36 | 37.90188 | 120.00112 | 33765 ft | 424 kts | 295° |
| 2026-05-06 06:36 | 37.93093 | 119.93650 | 33758 ft | 424 kts | 295° |
| 2026-05-06 06:37 | 37.96012 | 119.87145 | 33763 ft | 424 kts | 295° |
| 2026-05-06 06:37 | 37.98922 | 119.80646 | 33755 ft | 424 kts | 295° |
| 2026-05-06 06:38 | 38.01814 | 119.74172 | 33753 ft | 423 kts | 294° |
| 2026-05-06 06:38 | 38.04720 | 119.67656 | 33750 ft | 423 kts | 294° |
| 2026-05-06 06:39 | 38.07604 | 119.61178 | 33744 ft | 423 kts | 294° |
| 2026-05-06 06:39 | 38.10488 | 119.54673 | 33742 ft | 421 kts | 293° |
| 2026-05-06 06:40 | 38.12893 | 119.47942 | 33746 ft | 416 kts | 288° |
| 2026-05-06 06:40 | 38.15089 | 119.41140 | 33744 ft | 416 kts | 288° |
| 2026-05-06 06:41 | 38.17279 | 119.34380 | 33737 ft | 415 kts | 288° |
| 2026-05-06 06:41 | 38.19480 | 119.27597 | 33736 ft | 414 kts | 288° |
| 2026-05-06 06:42 | 38.21672 | 119.20836 | 33747 ft | 415 kts | 288° |
| 2026-05-06 06:42 | 38.22778 | 119.17411 | 33866 ft | 421 kts | 288° |
| 2026-05-06 06:42 | 38.23898 | 119.13946 | 34220 ft | 421 kts | 288° |
| 2026-05-06 06:42 | 38.25004 | 119.10522 | 34720 ft | 417 kts | 288° |
| 2026-05-06 06:43 | 38.26106 | 119.07112 | 35203 ft | 414 kts | 288° |
| 2026-05-06 06:43 | 38.27187 | 119.03758 | 35609 ft | 412 kts | 288° |
| 2026-05-06 06:43 | 38.28278 | 119.00362 | 35735 ft | 416 kts | 288° |
| 2026-05-06 06:44 | 38.30460 | 118.93560 | 35736 ft | 415 kts | 288° |
| 2026-05-06 06:44 | 38.32634 | 118.86776 | 35739 ft | 411 kts | 287° |
| 2026-05-06 06:45 | 38.34794 | 118.80015 | 35747 ft | 411 kts | 287° |
| 2026-05-06 06:45 | 38.36933 | 118.73301 | 35747 ft | 411 kts | 287° |
| 2026-05-06 06:46 | 38.39088 | 118.66516 | 35755 ft | 412 kts | 287° |
| 2026-05-06 06:46 | 38.41240 | 118.59721 | 35756 ft | 413 kts | 287° |
| 2026-05-06 06:47 | 38.43377 | 118.52958 | 35757 ft | 414 kts | 287° |
| 2026-05-06 06:47 | 38.45529 | 118.46133 | 35753 ft | 414 kts | 287° |
| 2026-05-06 06:48 | 38.47314 | 118.40463 | 35754 ft | 414 kts | 287° |
| 2026-05-06 06:48 | 38.49467 | 118.33630 | 35760 ft | 413 kts | 287° |
| 2026-05-06 06:49 | 38.51600 | 118.26859 | 35755 ft | 413 kts | 287° |
| 2026-05-06 06:49 | 38.53738 | 118.20051 | 35765 ft | 412 kts | 287° |
| 2026-05-06 06:50 | 38.55855 | 118.13295 | 35756 ft | 411 kts | 287° |
| 2026-05-06 06:50 | 38.58136 | 118.06566 | 35769 ft | 415 kts | 293° |
| 2026-05-06 06:51 | 38.61276 | 118.00352 | 35768 ft | 421 kts | 299° |
| 2026-05-06 06:51 | 38.65172 | 117.94645 | 35766 ft | 428 kts | 306° |
| 2026-05-06 06:52 | 38.69338 | 117.89175 | 35758 ft | 428 kts | 306° |
| 2026-05-06 06:52 | 38.73472 | 117.83730 | 35761 ft | 428 kts | 306° |
| 2026-05-06 06:53 | 38.77606 | 117.78224 | 35763 ft | 428 kts | 306° |
| 2026-05-06 06:53 | 38.81733 | 117.72695 | 35763 ft | 428 kts | 306° |
| 2026-05-06 06:54 | 38.85795 | 117.67241 | 35766 ft | 428 kts | 306° |
| 2026-05-06 06:54 | 38.89727 | 117.61955 | 35772 ft | 428 kts | 306° |
| 2026-05-06 06:55 | 38.93843 | 117.56412 | 35782 ft | 428 kts | 306° |
| 2026-05-06 06:55 | 38.97925 | 117.50905 | 35792 ft | 427 kts | 306° |
| 2026-05-06 06:56 | 39.02025 | 117.45363 | 35799 ft | 426 kts | 306° |
| 2026-05-06 06:56 | 39.05852 | 117.39640 | 35807 ft | 413 kts | 295° |
| 2026-05-06 06:57 | 39.08294 | 117.33039 | 35811 ft | 407 kts | 284° |
| 2026-05-06 06:57 | 39.09479 | 117.25989 | 35805 ft | 406 kts | 276° |
| 2026-05-06 06:58 | 39.10357 | 117.18782 | 35802 ft | 408 kts | 276° |
| 2026-05-06 06:58 | 39.11293 | 117.11561 | 35797 ft | 408 kts | 276° |
| 2026-05-06 06:58 | 39.11961 | 117.08006 | 35785 ft | 412 kts | 287° |
| 2026-05-06 06:59 | 39.13397 | 117.04757 | 35798 ft | 424 kts | 301° |
| 2026-05-06 06:59 | 39.15415 | 117.01984 | 35811 ft | 436 kts | 310° |
| 2026-05-06 06:59 | 39.17807 | 116.99540 | 35801 ft | 441 kts | 316° |
| 2026-05-06 06:59 | 39.20506 | 116.97566 | 35789 ft | 454 kts | 329° |
| 2026-05-06 07:00 | 39.23630 | 116.96549 | 35820 ft | 469 kts | 340° |
| 2026-05-06 07:00 | 39.30186 | 116.95366 | 35813 ft | 478 kts | 342° |
| 2026-05-06 07:01 | 39.36753 | 116.94251 | 35809 ft | 479 kts | 341° |
| 2026-05-06 07:01 | 39.43352 | 116.92967 | 35808 ft | 479 kts | 341° |
| 2026-05-06 07:02 | 39.49910 | 116.91614 | 35812 ft | 479 kts | 340° |
| 2026-05-06 07:02 | 39.56505 | 116.90244 | 35819 ft | 479 kts | 340° |
| 2026-05-06 07:03 | 39.63090 | 116.88882 | 35807 ft | 478 kts | 340° |
| 2026-05-06 07:03 | 39.69644 | 116.87527 | 35816 ft | 478 kts | 340° |
| 2026-05-06 07:04 | 39.76223 | 116.86164 | 35812 ft | 478 kts | 340° |
| 2026-05-06 07:04 | 39.82777 | 116.84813 | 35819 ft | 479 kts | 340° |
| 2026-05-06 07:05 | 39.89389 | 116.83504 | 35823 ft | 480 kts | 340° |
| 2026-05-06 07:05 | 39.96012 | 116.82198 | 35831 ft | 481 kts | 340° |
| 2026-05-06 07:06 | 40.02620 | 116.80886 | 35828 ft | 482 kts | 340° |
| 2026-05-06 07:06 | 40.09223 | 116.79568 | 35834 ft | 482 kts | 340° |
| 2026-05-06 07:07 | 40.15871 | 116.78237 | 35836 ft | 482 kts | 340° |
| 2026-05-06 07:07 | 40.22525 | 116.76905 | 35834 ft | 483 kts | 340° |
| 2026-05-06 07:08 | 40.29133 | 116.75578 | 35831 ft | 482 kts | 340° |
| 2026-05-06 07:08 | 40.35649 | 116.73865 | 35827 ft | 469 kts | 332° |
| 2026-05-06 07:09 | 40.41861 | 116.71338 | 35827 ft | 466 kts | 330° |
| 2026-05-06 07:09 | 40.48013 | 116.68780 | 35834 ft | 465 kts | 330° |
| 2026-05-06 07:10 | 40.54206 | 116.66258 | 35814 ft | 466 kts | 331° |
| 2026-05-06 07:10 | 40.60400 | 116.63765 | 35827 ft | 463 kts | 331° |
| 2026-05-06 07:11 | 40.66529 | 116.61280 | 35830 ft | 462 kts | 330° |
| 2026-05-06 07:11 | 40.72687 | 116.58780 | 35830 ft | 462 kts | 330° |
| 2026-05-06 07:12 | 40.78970 | 116.56641 | 35822 ft | 474 kts | 338° |
| 2026-05-06 07:12 | 40.85616 | 116.55831 | 35832 ft | 484 kts | 344° |
| 2026-05-06 07:13 | 40.92348 | 116.55298 | 35840 ft | 482 kts | 344° |
| 2026-05-06 07:13 | 40.99016 | 116.54698 | 35830 ft | 483 kts | 343° |
| 2026-05-06 07:14 | 41.05737 | 116.54061 | 35837 ft | 483 kts | 343° |
| 2026-05-06 07:14 | 41.12463 | 116.53418 | 35822 ft | 484 kts | 343° |
| 2026-05-06 07:15 | 41.19131 | 116.52775 | 35823 ft | 481 kts | 341° |
| 2026-05-06 07:15 | 41.22387 | 116.52065 | 35820 ft | 465 kts | 333° |
| 2026-05-06 07:15 | 41.25434 | 116.50818 | 35822 ft | 452 kts | 326° |
| 2026-05-06 07:15 | 41.28298 | 116.49175 | 35840 ft | 440 kts | 320° |
| 2026-05-06 07:16 | 41.30895 | 116.47187 | 35829 ft | 434 kts | 317° |
| 2026-05-06 07:16 | 41.36077 | 116.43025 | 35836 ft | 433 kts | 316° |
| 2026-05-06 07:17 | 41.41255 | 116.38873 | 35843 ft | 434 kts | 316° |
| 2026-05-06 07:17 | 41.46418 | 116.34768 | 35831 ft | 433 kts | 316° |
| 2026-05-06 07:18 | 41.51604 | 116.30659 | 35846 ft | 432 kts | 316° |
| 2026-05-06 07:18 | 41.56769 | 116.26554 | 35937 ft | 431 kts | 316° |
| 2026-05-06 07:19 | 41.61909 | 116.22459 | 35955 ft | 432 kts | 316° |
| 2026-05-06 07:19 | 41.67079 | 116.18333 | 35959 ft | 433 kts | 316° |
| 2026-05-06 07:20 | 41.72268 | 116.14186 | 35986 ft | 435 kts | 316° |
| 2026-05-06 07:20 | 41.74880 | 116.12093 | 36253 ft | 436 kts | 316° |
| 2026-05-06 07:20 | 41.77448 | 116.10040 | 36701 ft | 434 kts | 316° |
| 2026-05-06 07:20 | 41.80031 | 116.07975 | 37202 ft | 430 kts | 316° |
| 2026-05-06 07:21 | 41.82592 | 116.05923 | 37634 ft | 428 kts | 315° |
| 2026-05-06 07:21 | 41.85145 | 116.03871 | 37905 ft | 429 kts | 315° |
| 2026-05-06 07:21 | 41.87720 | 116.01791 | 37942 ft | 431 kts | 315° |
| 2026-05-06 07:22 | 41.92867 | 115.97650 | 37965 ft | 429 kts | 316° |
| 2026-05-06 07:22 | 41.97870 | 115.93451 | 37968 ft | 421 kts | 313° |
| 2026-05-06 07:23 | 42.02683 | 115.88996 | 37971 ft | 419 kts | 312° |
| 2026-05-06 07:23 | 42.07491 | 115.84503 | 37981 ft | 420 kts | 313° |
| 2026-05-06 07:24 | 42.12317 | 115.80015 | 37991 ft | 422 kts | 313° |
| 2026-05-06 07:24 | 42.17147 | 115.75523 | 37986 ft | 425 kts | 313° |
| 2026-05-06 07:25 | 42.22029 | 115.70983 | 37998 ft | 427 kts | 313° |
| 2026-05-06 07:25 | 42.26901 | 115.66441 | 37986 ft | 428 kts | 314° |
| 2026-05-06 07:26 | 42.31824 | 115.61842 | 37995 ft | 430 kts | 314° |
| 2026-05-06 07:26 | 42.36726 | 115.57252 | 37996 ft | 430 kts | 314° |
| 2026-05-06 07:27 | 42.41650 | 115.52634 | 37997 ft | 431 kts | 314° |
| 2026-05-06 07:27 | 42.46574 | 115.48007 | 37996 ft | 430 kts | 314° |
| 2026-05-06 07:28 | 42.51497 | 115.43371 | 38000 ft | 430 kts | 314° |
| 2026-05-06 07:28 | 42.58836 | 115.36443 | 38009 ft | 429 kts | 314° |
| 2026-05-06 07:29 | 42.63741 | 115.31801 | 38013 ft | 428 kts | 314° |
| 2026-05-06 07:29 | 42.68628 | 115.27165 | 38004 ft | 428 kts | 314° |
| 2026-05-06 07:30 | 42.73489 | 115.22547 | 38018 ft | 428 kts | 314° |
| 2026-05-06 07:30 | 42.78371 | 115.17899 | 38017 ft | 427 kts | 314° |
| 2026-05-06 07:31 | 42.83218 | 115.13276 | 38013 ft | 427 kts | 314° |
| 2026-05-06 07:31 | 42.88094 | 115.08615 | 38022 ft | 427 kts | 314° |
| 2026-05-06 07:32 | 42.92967 | 115.03948 | 38023 ft | 428 kts | 314° |
| 2026-05-06 07:32 | 42.97848 | 114.99263 | 38028 ft | 428 kts | 314° |
| 2026-05-06 07:33 | 43.02698 | 114.94599 | 38028 ft | 429 kts | 314° |
| 2026-05-06 07:33 | 43.07593 | 114.89883 | 38028 ft | 430 kts | 314° |
| 2026-05-06 07:34 | 43.12487 | 114.85172 | 38035 ft | 431 kts | 315° |
| 2026-05-06 07:34 | 43.17422 | 114.80547 | 38032 ft | 433 kts | 315° |
| 2026-05-06 07:35 | 43.21575 | 114.76684 | 38041 ft | 433 kts | 315° |
| 2026-05-06 07:35 | 43.27407 | 114.71234 | 38039 ft | 434 kts | 315° |
| 2026-05-06 07:36 | 43.31560 | 114.67335 | 38042 ft | 434 kts | 315° |
| 2026-05-06 07:36 | 43.36554 | 114.62633 | 38056 ft | 435 kts | 315° |
| 2026-05-06 07:37 | 43.41523 | 114.57943 | 38055 ft | 435 kts | 315° |
| 2026-05-06 07:37 | 43.46528 | 114.53212 | 38067 ft | 436 kts | 315° |
| 2026-05-06 07:38 | 43.51507 | 114.48494 | 38054 ft | 436 kts | 316° |
| 2026-05-06 07:38 | 43.56517 | 114.43738 | 38065 ft | 436 kts | 316° |
| 2026-05-06 07:39 | 43.61519 | 114.38980 | 38071 ft | 437 kts | 316° |
| 2026-05-06 07:39 | 43.66533 | 114.34200 | 38072 ft | 437 kts | 316° |
| 2026-05-06 07:40 | 43.71513 | 114.29443 | 38078 ft | 437 kts | 316° |
| 2026-05-06 07:40 | 43.76528 | 114.24642 | 38084 ft | 438 kts | 316° |
| 2026-05-06 07:41 | 43.81546 | 114.19829 | 38091 ft | 438 kts | 316° |
| 2026-05-06 07:41 | 43.86534 | 114.15035 | 38092 ft | 438 kts | 316° |
| 2026-05-06 07:42 | 43.91554 | 114.10199 | 38106 ft | 439 kts | 316° |
| 2026-05-06 07:42 | 43.96578 | 114.05351 | 38099 ft | 439 kts | 317° |
| 2026-05-06 07:43 | 44.01572 | 114.00520 | 38108 ft | 440 kts | 317° |
| 2026-05-06 07:43 | 44.06606 | 113.95640 | 38111 ft | 440 kts | 317° |
| 2026-05-06 07:44 | 44.11600 | 113.90788 | 38116 ft | 441 kts | 317° |
| 2026-05-06 07:44 | 44.16637 | 113.85885 | 38128 ft | 441 kts | 317° |
| 2026-05-06 07:45 | 44.21671 | 113.80975 | 38128 ft | 441 kts | 317° |
| 2026-05-06 07:45 | 44.26677 | 113.76082 | 38133 ft | 442 kts | 317° |
| 2026-05-06 07:46 | 44.31716 | 113.71146 | 38143 ft | 442 kts | 317° |
| 2026-05-06 07:46 | 44.36761 | 113.66195 | 38140 ft | 442 kts | 317° |
| 2026-05-06 07:47 | 44.41761 | 113.61275 | 38153 ft | 442 kts | 317° |
| 2026-05-06 07:47 | 44.46797 | 113.56310 | 38150 ft | 442 kts | 317° |
| 2026-05-06 07:48 | 44.51834 | 113.51333 | 38160 ft | 442 kts | 317° |
| 2026-05-06 07:48 | 44.56841 | 113.46374 | 38158 ft | 443 kts | 317° |
| 2026-05-06 07:49 | 44.61884 | 113.41368 | 38166 ft | 444 kts | 317° |
| 2026-05-06 07:49 | 44.66934 | 113.36345 | 38172 ft | 445 kts | 318° |
| 2026-05-06 07:50 | 44.71976 | 113.31321 | 38173 ft | 446 kts | 318° |
| 2026-05-06 07:50 | 44.76905 | 113.26009 | 38177 ft | 442 kts | 311° |
| 2026-05-06 07:51 | 44.81113 | 113.19781 | 38183 ft | 436 kts | 303° |
| 2026-05-06 07:51 | 44.84735 | 113.12982 | 38188 ft | 436 kts | 302° |
| 2026-05-06 07:52 | 44.88330 | 113.06064 | 38194 ft | 437 kts | 302° |
| 2026-05-06 07:52 | 44.91918 | 112.99175 | 38195 ft | 438 kts | 302° |
| 2026-05-06 07:53 | 44.95538 | 112.92251 | 38209 ft | 438 kts | 302° |
| 2026-05-06 07:53 | 44.99168 | 112.85307 | 38200 ft | 439 kts | 302° |
| 2026-05-06 07:54 | 45.02791 | 112.78365 | 38204 ft | 438 kts | 303° |
| 2026-05-06 07:54 | 45.06382 | 112.71466 | 38206 ft | 437 kts | 303° |
| 2026-05-06 07:55 | 45.09986 | 112.64522 | 38203 ft | 437 kts | 303° |
| 2026-05-06 07:55 | 45.13583 | 112.57577 | 38208 ft | 436 kts | 303° |
| 2026-05-06 07:56 | 45.17143 | 112.50685 | 38212 ft | 435 kts | 303° |
| 2026-05-06 07:56 | 45.20713 | 112.43756 | 38215 ft | 434 kts | 303° |
| 2026-05-06 07:57 | 45.24280 | 112.36816 | 38216 ft | 434 kts | 303° |
| 2026-05-06 07:57 | 45.27836 | 112.29883 | 38217 ft | 434 kts | 303° |
| 2026-05-06 07:58 | 45.31368 | 112.22976 | 38215 ft | 434 kts | 303° |
| 2026-05-06 07:58 | 45.34923 | 112.16010 | 38216 ft | 435 kts | 303° |
| 2026-05-06 07:59 | 45.38456 | 112.09070 | 38219 ft | 435 kts | 303° |
| 2026-05-06 07:59 | 45.42008 | 112.02075 | 38224 ft | 435 kts | 303° |
| 2026-05-06 08:00 | 45.45560 | 111.95065 | 38221 ft | 435 kts | 303° |
| 2026-05-06 08:00 | 45.49079 | 111.88100 | 38225 ft | 436 kts | 303° |
| 2026-05-06 08:01 | 45.52626 | 111.81062 | 38227 ft | 436 kts | 302° |
| 2026-05-06 08:01 | 45.56174 | 111.74006 | 38229 ft | 437 kts | 302° |
| 2026-05-06 08:02 | 45.59696 | 111.66984 | 38227 ft | 438 kts | 303° |
| 2026-05-06 08:02 | 45.63245 | 111.59892 | 38234 ft | 439 kts | 303° |
| 2026-05-06 08:03 | 45.66797 | 111.52774 | 38229 ft | 440 kts | 303° |
| 2026-05-06 08:03 | 45.70353 | 111.45632 | 38230 ft | 440 kts | 303° |
| 2026-05-06 08:04 | 45.73886 | 111.38516 | 38231 ft | 441 kts | 303° |
| 2026-05-06 08:04 | 45.77445 | 111.31331 | 38234 ft | 441 kts | 303° |
| 2026-05-06 08:05 | 45.80980 | 111.24177 | 38234 ft | 441 kts | 303° |
| 2026-05-06 08:05 | 45.84535 | 111.16964 | 38229 ft | 442 kts | 303° |
| 2026-05-06 08:06 | 45.88064 | 111.09784 | 38235 ft | 442 kts | 303° |
| 2026-05-06 08:06 | 45.91604 | 111.02565 | 38233 ft | 442 kts | 303° |
| 2026-05-06 08:07 | 45.95128 | 110.95360 | 38252 ft | 442 kts | 303° |
| 2026-05-06 08:07 | 45.98666 | 110.88106 | 38245 ft | 443 kts | 303° |
| 2026-05-06 08:08 | 46.02186 | 110.80872 | 38250 ft | 443 kts | 303° |
| 2026-05-06 08:08 | 46.05732 | 110.73563 | 38267 ft | 444 kts | 303° |
| 2026-05-06 08:09 | 46.09272 | 110.66251 | 38260 ft | 445 kts | 303° |
| 2026-05-06 08:09 | 46.12795 | 110.58953 | 38257 ft | 446 kts | 303° |
| 2026-05-06 08:10 | 46.16338 | 110.51596 | 38263 ft | 446 kts | 303° |
| 2026-05-06 08:10 | 46.19860 | 110.44263 | 38268 ft | 447 kts | 303° |
| 2026-05-06 08:11 | 46.23403 | 110.36865 | 38262 ft | 447 kts | 303° |
| 2026-05-06 08:11 | 46.26947 | 110.29447 | 38269 ft | 447 kts | 303° |
| 2026-05-06 08:12 | 46.30480 | 110.22034 | 38271 ft | 447 kts | 303° |
| 2026-05-06 08:12 | 46.33986 | 110.14654 | 38267 ft | 448 kts | 303° |
| 2026-05-06 08:13 | 46.37510 | 110.07219 | 38277 ft | 447 kts | 303° |
| 2026-05-06 08:13 | 46.41043 | 109.99746 | 38279 ft | 447 kts | 303° |
| 2026-05-06 08:14 | 46.44535 | 109.92339 | 38288 ft | 447 kts | 303° |
| 2026-05-06 08:14 | 46.48040 | 109.84885 | 38284 ft | 447 kts | 303° |
| 2026-05-06 08:15 | 46.51543 | 109.77415 | 38286 ft | 447 kts | 303° |
| 2026-05-06 08:15 | 46.55042 | 109.69933 | 38285 ft | 447 kts | 303° |
| 2026-05-06 08:16 | 46.58537 | 109.62440 | 38293 ft | 447 kts | 303° |
| 2026-05-06 08:16 | 46.62004 | 109.54987 | 38294 ft | 447 kts | 303° |
| 2026-05-06 08:17 | 46.65490 | 109.47473 | 38295 ft | 447 kts | 303° |
| 2026-05-06 08:17 | 46.68967 | 109.39959 | 38295 ft | 447 kts | 303° |
| 2026-05-06 08:18 | 46.72433 | 109.32447 | 38292 ft | 447 kts | 303° |
| 2026-05-06 08:18 | 46.75886 | 109.24943 | 37715 ft | 456 kts | 303° |
| 2026-05-06 08:19 | 46.77656 | 109.21088 | 37066 ft | 456 kts | 304° |
| 2026-05-06 08:19 | 46.79419 | 109.17244 | 36355 ft | 454 kts | 304° |
| 2026-05-06 08:19 | 46.81170 | 109.13420 | 35809 ft | 448 kts | 304° |
| 2026-05-06 08:19 | 46.82892 | 109.09656 | 35237 ft | 444 kts | 304° |
| 2026-05-06 08:20 | 46.84597 | 109.05923 | 34702 ft | 440 kts | 304° |
| 2026-05-06 08:20 | 46.86265 | 109.02266 | 34175 ft | 436 kts | 304° |
| 2026-05-06 08:20 | 46.87932 | 108.98603 | 33571 ft | 431 kts | 304° |
| 2026-05-06 08:20 | 46.89583 | 108.94971 | 33061 ft | 426 kts | 305° |
| 2026-05-06 08:21 | 46.91216 | 108.91375 | 32527 ft | 421 kts | 306° |
| 2026-05-06 08:21 | 46.92287 | 108.89014 | 32188 ft | 418 kts | 306° |
| 2026-05-06 08:21 | 46.93891 | 108.85475 | 31662 ft | 415 kts | 306° |
| 2026-05-06 08:21 | 46.95476 | 108.81975 | 31170 ft | 411 kts | 307° |
| 2026-05-06 08:22 | 46.97047 | 108.78502 | 30666 ft | 407 kts | 308° |
| 2026-05-06 08:22 | 46.98606 | 108.75057 | 30170 ft | 404 kts | 308° |
| 2026-05-06 08:22 | 47.00152 | 108.71630 | 29576 ft | 401 kts | 308° |
| 2026-05-06 08:22 | 47.01681 | 108.68234 | 29079 ft | 397 kts | 308° |
| 2026-05-06 08:23 | 47.03201 | 108.64865 | 28569 ft | 393 kts | 308° |
| 2026-05-06 08:23 | 47.04699 | 108.61542 | 28084 ft | 389 kts | 307° |
| 2026-05-06 08:23 | 47.06184 | 108.58248 | 27576 ft | 385 kts | 308° |
| 2026-05-06 08:23 | 47.07640 | 108.55017 | 27106 ft | 382 kts | 307° |
| 2026-05-06 08:24 | 47.09102 | 108.51765 | 26616 ft | 379 kts | 307° |
| 2026-05-06 08:24 | 47.10554 | 108.48534 | 26120 ft | 377 kts | 307° |
| 2026-05-06 08:24 | 47.11990 | 108.45333 | 25660 ft | 374 kts | 307° |
| 2026-05-06 08:24 | 47.13419 | 108.42144 | 25193 ft | 372 kts | 307° |
| 2026-05-06 08:25 | 47.14840 | 108.38971 | 24725 ft | 370 kts | 307° |
| 2026-05-06 08:25 | 47.16231 | 108.35858 | 24276 ft | 368 kts | 307° |
| 2026-05-06 08:25 | 47.17630 | 108.32726 | 23815 ft | 366 kts | 307° |
| 2026-05-06 08:25 | 47.19024 | 108.29600 | 23281 ft | 365 kts | 307° |
| 2026-05-06 08:26 | 47.20411 | 108.26486 | 22798 ft | 362 kts | 307° |
| 2026-05-06 08:26 | 47.21783 | 108.23402 | 22336 ft | 359 kts | 307° |
| 2026-05-06 08:26 | 47.23148 | 108.20330 | 21877 ft | 356 kts | 307° |
| 2026-05-06 08:26 | 47.24502 | 108.17281 | 21426 ft | 354 kts | 307° |
| 2026-05-06 08:27 | 47.25851 | 108.14239 | 20960 ft | 352 kts | 307° |
| 2026-05-06 08:27 | 47.27177 | 108.11246 | 20529 ft | 351 kts | 307° |
| 2026-05-06 08:27 | 47.28508 | 108.08239 | 20098 ft | 349 kts | 307° |
| 2026-05-06 08:27 | 47.29832 | 108.05243 | 19646 ft | 348 kts | 307° |
| 2026-05-06 08:28 | 47.31155 | 108.02249 | 19210 ft | 347 kts | 307° |
| 2026-05-06 08:28 | 47.32453 | 107.99305 | 18780 ft | 347 kts | 307° |
| 2026-05-06 08:28 | 47.33772 | 107.96312 | 18300 ft | 346 kts | 307° |
| 2026-05-06 08:28 | 47.35081 | 107.93338 | 17796 ft | 345 kts | 306° |
| 2026-05-06 08:29 | 47.36385 | 107.90371 | 17341 ft | 344 kts | 306° |
| 2026-05-06 08:29 | 47.37686 | 107.87410 | 16888 ft | 342 kts | 306° |
| 2026-05-06 08:29 | 47.38959 | 107.84508 | 16457 ft | 340 kts | 306° |
| 2026-05-06 08:29 | 47.40236 | 107.81569 | 16017 ft | 339 kts | 304° |
| 2026-05-06 08:30 | 47.41360 | 107.78479 | 15577 ft | 340 kts | 299° |
| 2026-05-06 08:30 | 47.42363 | 107.75313 | 15145 ft | 339 kts | 297° |
| 2026-05-06 08:30 | 47.43324 | 107.72183 | 14717 ft | 339 kts | 297° |
| 2026-05-06 08:30 | 47.44302 | 107.69013 | 14228 ft | 339 kts | 297° |
| 2026-05-06 08:31 | 47.45298 | 107.65833 | 13645 ft | 342 kts | 297° |
| 2026-05-06 08:31 | 47.46304 | 107.62645 | 13143 ft | 340 kts | 297° |
| 2026-05-06 08:31 | 47.47309 | 107.59479 | 12684 ft | 338 kts | 297° |
| 2026-05-06 08:31 | 47.48295 | 107.56381 | 12259 ft | 336 kts | 297° |
| 2026-05-06 08:32 | 47.49291 | 107.53256 | 11877 ft | 331 kts | 297° |
| 2026-05-06 08:32 | 47.50236 | 107.50283 | 11631 ft | 306 kts | 298° |
| 2026-05-06 08:32 | 47.51116 | 107.47514 | 11320 ft | 289 kts | 298° |
| 2026-05-06 08:32 | 47.51940 | 107.44920 | 10967 ft | 275 kts | 298° |
| 2026-05-06 08:33 | 47.52752 | 107.42376 | 10410 ft | 274 kts | 298° |
| 2026-05-06 08:33 | 47.53575 | 107.39793 | 10035 ft | 278 kts | 297° |
| 2026-05-06 08:33 | 47.54396 | 107.37211 | 9900 ft | 272 kts | 297° |
| 2026-05-06 08:33 | 47.55183 | 107.34715 | 9834 ft | 264 kts | 297° |
| 2026-05-06 08:34 | 47.55783 | 107.32174 | 9752 ft | 261 kts | 288° |
| 2026-05-06 08:34 | 47.56673 | 107.26961 | 9449 ft | 264 kts | 287° |
| 2026-05-06 08:34 | 47.57101 | 107.24518 | 9330 ft | 263 kts | 288° |
| 2026-05-06 08:35 | 47.57557 | 107.21943 | 9145 ft | 253 kts | 288° |
| 2026-05-06 08:35 | 47.58003 | 107.19472 | 8957 ft | 244 kts | 288° |
| 2026-05-06 08:35 | 47.58436 | 107.17101 | 8737 ft | 238 kts | 289° |
| 2026-05-06 08:35 | 47.58876 | 107.14766 | 8560 ft | 233 kts | 288° |
| 2026-05-06 08:36 | 47.59300 | 107.12438 | 8460 ft | 232 kts | 289° |
| 2026-05-06 08:36 | 47.59715 | 107.10127 | 8155 ft | 228 kts | 288° |
| 2026-05-06 08:36 | 47.60101 | 107.07940 | 7846 ft | 218 kts | 288° |
| 2026-05-06 08:36 | 47.60473 | 107.05813 | 7552 ft | 205 kts | 288° |
| 2026-05-06 08:37 | 47.60820 | 107.03859 | 7291 ft | 187 kts | 288° |
| 2026-05-06 08:37 | 47.61138 | 107.02064 | 7033 ft | 172 kts | 288° |
| 2026-05-06 08:37 | 47.61420 | 107.00461 | 6829 ft | 148 kts | 289° |
| 2026-05-06 08:37 | 47.61671 | 106.99048 | 6638 ft | 139 kts | 290° |
| 2026-05-06 08:38 | 47.61922 | 106.97641 | 6474 ft | 146 kts | 289° |
| 2026-05-06 08:38 | 47.62187 | 106.96153 | 6294 ft | 151 kts | 289° |
| 2026-05-06 08:38 | 47.62442 | 106.94660 | 6053 ft | 148 kts | 289° |
| 2026-05-06 08:38 | 47.62702 | 106.93204 | 5801 ft | 142 kts | 289° |
| 2026-05-06 08:39 | 47.62946 | 106.91815 | 5563 ft | 137 kts | 290° |
| 2026-05-06 08:39 | 47.63190 | 106.90443 | 5362 ft | 140 kts | 289° |
| 2026-05-06 08:39 | 47.63440 | 106.89063 | 5195 ft | 141 kts | 288° |
| 2026-05-06 08:39 | 47.63694 | 106.87636 | 4990 ft | 144 kts | 287° |
| 2026-05-06 08:40 | 47.63947 | 106.86188 | 4770 ft | 143 kts | 287° |
| 2026-05-06 08:40 | 47.64201 | 106.84770 | 4589 ft | 142 kts | 287° |
| 2026-05-06 08:40 | 47.64456 | 106.83345 | 4500 ft | 137 kts | 285° |
| 2026-05-06 08:40 | 47.64658 | 106.82195 | 4500 ft | 92 kts | 284° |
| 2026-05-06 08:41 | 47.64777 | 106.81501 | 4498 ft | 46 kts | 284° |
| 2026-05-06 08:41 | 47.64836 | 106.81172 | 4501 ft | 25 kts | 284° |
| 2026-05-06 08:41 | 47.64890 | 106.80975 | 4503 ft | 15 kts | 303° |
| 2026-05-06 08:41 | 47.64950 | 106.80852 | 4502 ft | 14 kts | 308° |
| 2026-05-06 08:42 | 47.65007 | 106.80796 | 4502 ft | 10 kts | 351° |
| 2026-05-06 08:42 | 47.65060 | 106.80843 | 4501 ft | 10 kts | 68° |
| 2026-05-06 08:42 | 47.65055 | 106.80944 | 4502 ft | 10 kts | 102° |
| 2026-05-06 08:42 | 47.65038 | 106.81045 | 4503 ft | 10 kts | 104° |
| 2026-05-06 08:43 | 47.65020 | 106.81144 | 4500 ft | 10 kts | 105° |
| 2026-05-06 08:43 | 47.65002 | 106.81244 | 4501 ft | 10 kts | 105° |
| 2026-05-06 08:43 | 47.64984 | 106.81343 | 4501 ft | 10 kts | 105° |
| 2026-05-06 08:43 | 47.64967 | 106.81443 | 4505 ft | 10 kts | 98° |
| 2026-05-06 08:44 | 47.64985 | 106.81539 | 4507 ft | 10 kts | 62° |
| 2026-05-06 08:44 | 47.65014 | 106.81632 | 4510 ft | 10 kts | 78° |
| 2026-05-06 08:44 | 47.65006 | 106.81734 | 4508 ft | 10 kts | 103° |
| 2026-05-06 08:44 | 47.64989 | 106.81834 | 4507 ft | 10 kts | 105° |
| 2026-05-06 08:45 | 47.64970 | 106.81934 | 4508 ft | 10 kts | 105° |
| 2026-05-06 08:45 | 47.64953 | 106.82034 | 4510 ft | 10 kts | 104° |
| 2026-05-06 08:45 | 47.64936 | 106.82133 | 4508 ft | 10 kts | 104° |
| 2026-05-06 08:45 | 47.64919 | 106.82226 | 4507 ft | 7 kts | 104° |
| 2026-05-06 08:46 | 47.64928 | 106.82288 | 4510 ft | 7 kts | 32° |
| 2026-05-06 08:46 | 47.64971 | 106.82309 | 4508 ft | 5 kts | 16° |
| 2026-05-06 08:46 | 47.65003 | 106.82322 | 4508 ft | 4 kts | 15° |
| 2026-05-06 08:46 | 47.65023 | 106.82330 | 4509 ft | 2 kts | 15° |
| 2026-05-06 08:47 | 47.65033 | 106.82334 | 4509 ft | 1 kts | 15° |
| 2026-05-06 08:47 | 47.65037 | 106.82336 | 4509 ft | 0 kts | 14° |